Time;durP1;ratioP1;P1;durP2;ratioP2;P2;SDS_P1;SDS_P2;PMS_P1;PMS_P2;Temp;Humidity;BMP_temperature;BMP_pressure;BME280_temperature;BME280_humidity;BME280_pressure;Samples;Min_cycle;Max_cycle;Signal;HPM_P1;HPM_P2
2022/04/18 00:02:45;;;;;;;2.73;1.83;;;9.10;56.40;;;;;;10443680;28;20219;-70
2022/04/18 00:07:45;;;;;;;3.10;2.17;;;9.00;56.60;;;;;;10437567;28;20307;-70
2022/04/18 00:12:46;;;;;;;5.57;2.00;;;8.90;57.00;;;;;;10436264;28;20303;-71
2022/04/18 00:17:46;;;;;;;2.80;1.90;;;8.90;57.40;;;;;;10418229;28;20243;-70
2022/04/18 00:22:47;;;;;;;4.07;2.20;;;8.80;57.90;;;;;;10442135;28;20224;-70
2022/04/18 00:27:50;;;;;;;3.53;2.20;;;8.70;58.80;;;;;;10417532;28;20220;-72
2022/04/18 00:32:51;;;;;;;3.10;2.60;;;8.60;59.30;;;;;;10432585;28;20443;-71
2022/04/18 00:37:54;;;;;;;2.87;2.30;;;8.50;59.90;;;;;;10422649;28;20224;-72
2022/04/18 00:43:03;;;;;;;2.83;2.47;;;8.40;61.00;;;;;;10434859;28;20722;-73
2022/04/18 00:48:04;;;;;;;2.93;2.40;;;8.30;63.30;;;;;;10438918;28;20236;-73
2022/04/18 00:53:05;;;;;;;5.30;2.67;;;8.20;63.20;;;;;;10432885;28;20311;-71
2022/04/18 00:58:05;;;;;;;3.63;2.30;;;8.20;63.10;;;;;;10409362;28;20702;-69
2022/04/18 01:03:06;;;;;;;4.90;2.40;;;8.20;63.30;;;;;;10435599;28;20231;-70
2022/04/18 01:08:07;;;;;;;3.37;2.57;;;8.20;64.10;;;;;;10432691;28;20534;-69
2022/04/18 01:13:11;;;;;;;3.47;2.20;;;8.20;64.00;;;;;;10423208;28;20216;-70
2022/04/18 01:18:12;;;;;;;2.67;2.20;;;8.20;64.00;;;;;;10428313;28;20231;-72
2022/04/18 01:23:13;;;;;;;2.83;1.80;;;8.30;64.00;;;;;;10437134;28;20226;-70
2022/04/18 01:33:33;;;;;;;4.97;2.40;;;8.30;64.60;;;;;;10443817;28;20225;-70
2022/04/18 01:38:33;;;;;;;3.90;2.30;;;8.40;64.80;;;;;;10440623;28;20701;-71
2022/04/18 01:43:34;;;;;;;2.93;1.90;;;8.40;65.50;;;;;;10444583;28;20221;-71
2022/04/18 01:48:37;;;;;;;5.97;2.00;;;8.40;65.50;;;;;;10439953;28;20226;-70
2022/04/18 01:53:38;;;;;;;3.93;2.47;;;8.40;65.80;;;;;;10431344;28;20222;-70
2022/04/18 01:58:39;;;;;;;2.80;2.00;;;8.30;66.50;;;;;;10441807;28;20246;-71
2022/04/18 02:03:41;;;;;;;1.97;1.67;;;8.30;67.80;;;;;;10447159;28;20228;-71
2022/04/18 02:08:42;;;;;;;3.30;2.20;;;8.10;68.20;;;;;;10423394;28;20235;-71
2022/04/18 02:13:43;;;;;;;3.20;1.97;;;8.00;68.90;;;;;;10447103;28;20216;-71
2022/04/18 02:18:43;;;;;;;2.33;1.93;;;7.90;68.70;;;;;;10423332;28;20267;-70
2022/04/18 02:23:47;;;;;;;4.10;2.00;;;7.90;69.00;;;;;;10439432;28;20212;-71
2022/04/18 02:28:51;;;;;;;3.60;1.93;;;7.80;69.50;;;;;;10438326;28;20216;-71
2022/04/18 02:33:51;;;;;;;4.23;2.13;;;7.80;69.30;;;;;;10440171;28;20216;-70
2022/04/18 02:38:52;;;;;;;2.13;1.93;;;7.80;69.20;;;;;;10439553;28;20728;-69
2022/04/18 02:43:52;;;;;;;3.50;2.27;;;7.90;69.00;;;;;;10444374;28;20245;-70
2022/04/18 02:48:53;;;;;;;2.60;2.30;;;7.90;69.30;;;;;;10434853;28;20366;-71
2022/04/18 02:53:54;;;;;;;4.87;2.40;;;7.90;69.20;;;;;;10439175;28;20676;-70
2022/04/18 02:58:55;;;;;;;2.17;1.80;;;7.80;69.00;;;;;;10439383;28;20227;-72
2022/04/18 03:03:56;;;;;;;6.97;2.13;;;7.80;69.20;;;;;;10439053;28;20575;-71
2022/04/18 03:08:56;;;;;;;3.03;2.43;;;7.60;71.00;;;;;;10434644;28;20695;-68
2022/04/18 03:13:57;;;;;;;3.93;2.57;;;7.50;72.10;;;;;;10440821;28;20269;-69
2022/04/18 03:18:58;;;;;;;2.27;2.07;;;7.30;73.00;;;;;;10441216;28;20215;-70
2022/04/18 03:23:59;;;;;;;3.20;1.83;;;7.20;73.50;;;;;;10440077;28;20224;-69
2022/04/18 03:29:00;;;;;;;3.43;2.17;;;7.20;74.80;;;;;;10443917;28;20220;-71
2022/04/18 03:34:01;;;;;;;2.33;1.97;;;7.10;75.50;;;;;;10442492;28;20579;-71
2022/04/18 03:44:24;;;;;;;2.37;2.17;;;6.80;76.90;;;;;;10438674;28;20232;-71
2022/04/18 03:49:25;;;;;;;3.23;2.20;;;6.60;78.60;;;;;;10443988;28;20235;-71
2022/04/18 03:54:26;;;;;;;4.00;2.73;;;6.50;79.10;;;;;;10436243;28;20224;-71
2022/04/18 03:59:28;;;;;;;3.37;2.37;;;6.30;79.70;;;;;;10419964;28;20215;-70
2022/04/18 04:04:29;;;;;;;4.33;2.43;;;6.10;81.10;;;;;;10438824;28;20223;-71
2022/04/18 04:09:30;;;;;;;2.43;2.20;;;5.90;82.20;;;;;;10433599;28;20315;-71
2022/04/18 04:14:30;;;;;;;3.27;2.30;;;5.90;83.70;;;;;;10428646;28;20709;-71
2022/04/18 04:19:31;;;;;;;3.67;2.40;;;5.80;84.60;;;;;;10439401;28;20635;-68
2022/04/18 04:24:32;;;;;;;3.77;2.43;;;5.90;85.00;;;;;;10436162;28;20307;-69
2022/04/18 04:29:32;;;;;;;3.60;2.43;;;5.80;85.90;;;;;;10433279;28;20224;-69
2022/04/18 04:34:33;;;;;;;3.00;2.20;;;5.70;87.40;;;;;;10432660;28;20444;-69
2022/04/18 04:39:33;;;;;;;4.40;2.40;;;5.80;88.60;;;;;;10435746;28;20617;-70
2022/04/18 04:44:34;;;;;;;4.43;2.47;;;5.80;87.80;;;;;;10432459;28;20250;-70
2022/04/18 04:49:34;;;;;;;3.37;2.50;;;5.90;87.50;;;;;;10434176;28;20702;-69
2022/04/18 04:54:35;;;;;;;3.37;2.20;;;5.90;88.10;;;;;;10433868;28;20216;-68
2022/04/18 04:59:36;;;;;;;3.10;2.57;;;6.00;88.20;;;;;;10432958;28;20217;-67
2022/04/18 05:04:36;;;;;;;3.47;2.70;;;6.10;87.20;;;;;;10433074;28;20203;-69
2022/04/18 05:09:37;;;;;;;3.47;2.80;;;6.30;85.90;;;;;;10415277;28;20228;-69
2022/04/18 05:14:37;;;;;;;4.37;2.60;;;6.60;85.30;;;;;;10436659;28;20214;-69
2022/04/18 05:19:41;;;;;;;4.63;2.20;;;6.70;84.70;;;;;;10433592;28;20299;-70
2022/04/18 05:24:42;;;;;;;3.63;2.53;;;6.70;84.70;;;;;;10431080;28;20911;-69
2022/04/18 05:29:43;;;;;;;3.57;2.20;;;6.80;84.30;;;;;;10439179;28;20223;-69
2022/04/18 05:34:44;;;;;;;3.77;2.60;;;6.90;83.50;;;;;;10430267;28;20221;-69
2022/04/18 05:39:44;;;;;;;4.33;2.70;;;7.10;82.60;;;;;;10432470;28;20737;-69
2022/04/18 05:44:45;;;;;;;5.20;2.03;;;7.70;80.70;;;;;;10428349;28;20274;-69
2022/04/18 05:49:46;;;;;;;5.67;2.37;;;8.10;77.80;;;;;;10440393;28;20224;-70
2022/04/18 05:54:46;;;;;;;5.13;2.40;;;8.40;76.60;;;;;;10432213;28;20582;-69
2022/04/18 05:59:48;;;;;;;2.00;1.90;;;9.00;74.80;;;;;;10435919;28;20227;-69
2022/04/18 06:04:48;;;;;;;3.53;2.20;;;12.30;63.70;;;;;;10427994;28;20590;-72
2022/04/18 06:09:49;;;;;;;4.13;2.23;;;14.80;55.30;;;;;;10440177;28;20326;-72
2022/04/18 06:14:49;;;;;;;4.63;2.30;;;16.00;51.00;;;;;;10437403;28;20277;-71
2022/04/18 06:19:53;;;;;;;4.83;2.03;;;17.00;47.80;;;;;;10444649;28;20218;-71
2022/04/18 06:24:54;;;;;;;3.07;2.00;;;17.60;45.40;;;;;;10443855;28;20247;-70
2022/04/18 06:29:54;;;;;;;3.03;2.10;;;17.60;45.30;;;;;;10439756;28;20248;-71
2022/04/18 06:34:55;;;;;;;2.77;2.10;;;18.40;43.40;;;;;;10425392;28;20216;-70
2022/04/18 06:39:55;;;;;;;2.83;2.10;;;16.90;44.90;;;;;;10436135;28;20243;-70
2022/04/18 06:44:56;;;;;;;2.53;2.10;;;15.00;48.30;;;;;;10440102;28;20792;-69
2022/04/18 06:49:56;;;;;;;2.63;2.10;;;14.60;49.70;;;;;;10435227;28;20241;-70
2022/04/18 06:54:59;;;;;;;3.50;2.30;;;14.90;49.10;;;;;;10428994;28;20225;-70
2022/04/18 06:59:59;;;;;;;4.13;2.80;;;14.40;49.70;;;;;;10432502;28;20229;-69
2022/04/18 07:05:01;;;;;;;3.70;2.30;;;13.50;51.50;;;;;;10430288;28;20226;-71
2022/04/18 07:10:06;;;;;;;3.73;2.43;;;12.80;52.90;;;;;;10437552;28;20221;-73
2022/04/18 07:15:07;;;;;;;3.97;2.20;;;12.40;54.30;;;;;;10442447;28;20666;-71
2022/04/18 07:20:08;;;;;;;3.00;2.43;;;12.30;55.20;;;;;;10431156;28;20262;-70
2022/04/18 07:25:09;;;;;;;4.97;2.30;;;12.30;55.30;;;;;;10434249;28;20214;-69
2022/04/18 07:30:10;;;;;;;4.37;2.63;;;12.40;55.30;;;;;;10430871;28;20212;-70
2022/04/18 07:35:11;;;;;;;4.03;2.33;;;12.80;55.60;;;;;;10425695;28;20649;-70
2022/04/18 07:40:12;;;;;;;3.93;2.50;;;15.70;49.70;;;;;;10444783;28;20199;-70
2022/04/18 07:45:12;;;;;;;3.37;2.50;;;18.10;45.80;;;;;;10417630;28;20712;-71
2022/04/18 07:50:13;;;;;;;2.90;2.10;;;19.10;41.20;;;;;;10430253;28;20685;-71
2022/04/18 07:55:14;;;;;;;2.73;2.40;;;19.50;40.30;;;;;;10424452;28;20181;-72
2022/04/18 08:00:14;;;;;;;2.70;2.47;;;20.80;38.70;;;;;;10433675;28;20224;-72
2022/04/18 08:05:16;;;;;;;4.30;3.00;;;20.50;38.70;;;;;;10431065;28;20224;-72
2022/04/18 08:10:16;;;;;;;3.60;2.63;;;21.10;38.00;;;;;;10442594;28;20266;-72
2022/04/18 08:15:17;;;;;;;3.97;2.70;;;20.80;37.90;;;;;;10447559;28;20536;-72
2022/04/18 08:20:18;;;;;;;3.53;2.60;;;20.80;37.90;;;;;;10449713;28;20183;-72
2022/04/18 08:25:18;;;;;;;5.60;2.93;;;22.70;37.20;;;;;;10437664;28;20196;-72
2022/04/18 08:30:19;;;;;;;3.67;2.63;;;22.40;36.30;;;;;;10438631;28;20203;-72
2022/04/18 08:35:20;;;;;;;4.03;2.90;;;23.00;35.90;;;;;;10415572;28;20205;-72
2022/04/18 08:40:22;;;;;;;4.37;2.77;;;22.40;34.80;;;;;;10433431;28;20244;-71
2022/04/18 08:45:28;;;;;;;2.97;2.53;;;22.20;35.00;;;;;;10445867;28;20187;-71
2022/04/18 08:55:49;;;;;;;4.70;3.27;;;25.20;31.70;;;;;;10440922;28;20211;-72
2022/04/18 09:00:50;;;;;;;6.53;3.00;;;24.40;32.20;;;;;;10425502;28;20270;-71
2022/04/18 09:06:24;;;;;;;3.75;3.25;;;24.50;30.60;;;;;;10433321;28;20516;-71
2022/04/18 09:11:37;;;;;;;5.20;3.17;;;24.00;30.70;;;;;;10381473;28;20251;-72
2022/04/18 09:16:39;;;;;;;4.63;3.03;;;24.30;30.40;;;;;;10420043;28;20294;-72
2022/04/18 09:21:58;;;;;;;3.20;2.63;;;25.90;28.70;;;;;;10441957;28;20266;-71
2022/04/18 09:27:27;;;;;;;4.60;2.90;;;27.80;27.20;;;;;;10445736;28;20311;-73
2022/04/18 09:32:27;;;;;;;3.37;2.40;;;27.30;27.00;;;;;;10433847;28;20277;-72
2022/04/18 09:37:30;;;;;;;4.00;1.93;;;26.10;27.80;;;;;;10438602;28;20387;-72
2022/04/18 09:42:30;;;;;;;2.20;2.03;;;25.90;27.50;;;;;;10432195;28;20687;-71
2022/04/18 09:47:35;;;;;;;2.97;2.50;;;27.10;27.00;;;;;;10427524;28;20243;-72
2022/04/18 09:52:36;;;;;;;3.80;2.40;;;25.40;27.20;;;;;;10420779;28;20223;-74
2022/04/18 09:57:36;;;;;;;3.73;2.57;;;24.70;28.50;;;;;;10441939;28;20221;-71
2022/04/18 10:02:38;;;;;;;3.67;2.50;;;26.00;27.10;;;;;;10449261;28;20678;-73
2022/04/18 10:07:39;;;;;;;4.50;3.17;;;29.30;26.50;;;;;;10444217;28;21047;-72
2022/04/18 10:12:40;;;;;;;3.00;2.70;;;29.50;25.80;;;;;;10433095;28;20215;-71
2022/04/18 10:17:43;;;;;;;3.30;2.57;;;29.90;25.60;;;;;;10425537;28;20227;-70
2022/04/18 10:23:09;;;;;;;5.30;2.97;;;31.50;24.10;;;;;;10441896;28;20228;-70
2022/04/18 10:28:17;;;;;;;3.13;2.70;;;30.30;24.50;;;;;;10430487;28;20219;-70
2022/04/18 10:33:19;;;;;;;3.13;2.50;;;29.30;25.20;;;;;;10443098;28;20734;-72
2022/04/18 10:38:25;;;;;;;4.27;2.70;;;28.30;24.90;;;;;;10439826;28;20223;-70
2022/04/18 10:43:53;;;;;;;3.17;2.73;;;27.90;26.40;;;;;;10438303;28;20215;-71
2022/04/18 10:48:59;;;;;;;2.80;2.47;;;30.70;24.30;;;;;;10437358;28;20536;-72
2022/04/18 10:54:11;;;;;;;2.90;2.60;;;32.70;22.70;;;;;;10435514;28;20583;-72
2022/04/18 10:59:14;;;;;;;4.70;2.90;;;31.20;22.90;;;;;;10436881;28;20227;-72
2022/04/18 11:04:15;;;;;;;3.00;2.50;;;29.10;24.20;;;;;;10436865;28;20438;-71
2022/04/18 11:09:22;;;;;;;4.55;2.75;;;24.40;28.20;;;;;;10441829;28;20442;-73
2022/04/18 11:14:29;;;;;;;2.60;2.30;;;21.30;33.10;;;;;;10433874;28;20208;-72
2022/04/18 11:19:36;;;;;;;3.67;2.40;;;20.30;35.20;;;;;;10419307;28;20220;-72
2022/04/18 11:24:46;;;;;;;2.53;2.20;;;19.80;36.40;;;;;;10438939;28;20212;-74
2022/04/18 11:30:01;;;;;;;3.60;2.33;;;19.70;36.10;;;;;;10418604;28;20470;-71
2022/04/18 11:35:05;;;;;;;2.77;2.20;;;19.10;36.10;;;;;;10441548;28;20212;-70
2022/04/18 11:40:17;;;;;;;2.87;2.00;;;18.60;38.40;;;;;;10451680;28;20224;-73
2022/04/18 11:45:30;;;;;;;2.23;2.03;;;18.20;38.80;;;;;;10442758;28;20599;-73
2022/04/18 11:50:36;;;;;;;2.60;2.20;;;18.10;39.60;;;;;;10420944;28;20435;-71
2022/04/18 11:55:44;;;;;;;3.53;1.90;;;18.10;39.40;;;;;;10429327;28;20771;-70
2022/04/18 12:11:24;;;;;;;3.00;1.97;;;17.90;39.40;;;;;;10441418;28;20294;-71
2022/04/18 12:16:26;;;;;;;2.97;2.17;;;17.90;39.90;;;;;;10434462;28;20747;-70
2022/04/18 12:21:26;;;;;;;4.53;2.13;;;17.90;39.00;;;;;;10425569;28;20237;-71
2022/04/18 12:26:35;;;;;;;2.53;1.87;;;18.10;39.90;;;;;;10431762;28;20228;-73
2022/04/18 12:31:43;;;;;;;3.73;2.03;;;18.20;39.60;;;;;;10435004;28;20230;-72
2022/04/18 12:36:43;;;;;;;3.03;2.10;;;18.00;39.30;;;;;;10428761;28;20230;-72
2022/04/18 12:41:44;;;;;;;2.83;1.90;;;18.20;39.60;;;;;;10439899;28;20729;-71
2022/04/18 12:46:44;;;;;;;3.40;1.80;;;18.20;39.00;;;;;;10419278;28;20267;-71
2022/04/18 12:51:50;;;;;;;1.90;1.80;;;18.00;38.90;;;;;;10442680;28;20262;-72
2022/04/18 12:56:51;;;;;;;3.77;1.50;;;17.90;39.20;;;;;;10435668;28;20300;-71
2022/04/18 13:02:03;;;;;;;2.20;1.67;;;18.00;41.10;;;;;;10442238;28;20300;-71
2022/04/18 13:07:06;;;;;;;2.53;1.70;;;18.00;40.40;;;;;;10445225;28;20257;-71
2022/04/18 13:12:08;;;;;;;1.53;1.43;;;17.90;39.80;;;;;;10428730;28;20238;-71
2022/04/18 13:17:10;;;;;;;2.80;1.63;;;17.90;38.80;;;;;;10437878;28;20235;-70
2022/04/18 13:22:11;;;;;;;3.93;1.80;;;18.10;39.10;;;;;;10435604;28;20307;-71
2022/04/18 13:27:28;;;;;;;3.37;1.90;;;18.10;39.10;;;;;;10459455;28;20253;-71
2022/04/18 13:32:29;;;;;;;2.00;1.70;;;17.80;38.30;;;;;;10434808;28;20606;-71
2022/04/18 13:37:30;;;;;;;2.00;1.50;;;17.80;39.10;;;;;;10447881;28;20288;-71
2022/04/18 13:42:31;;;;;;;3.53;1.73;;;18.00;36.60;;;;;;10447466;28;20215;-70
2022/04/18 13:47:32;;;;;;;1.47;1.37;;;18.10;37.00;;;;;;10454489;28;20564;-71
2022/04/18 13:52:32;;;;;;;2.60;1.73;;;18.20;37.20;;;;;;10447699;28;20310;-71
2022/04/18 13:57:33;;;;;;;7.63;5.83;;;18.20;39.50;;;;;;10440794;28;20226;-71
2022/04/18 14:02:33;;;;;;;1.57;1.47;;;18.40;39.20;;;;;;10452995;28;20246;-72
2022/04/18 14:07:34;;;;;;;1.80;1.40;;;18.40;37.00;;;;;;10440424;28;20314;-70
2022/04/18 14:12:35;;;;;;;8.03;6.70;;;18.30;36.30;;;;;;10456208;28;20218;-72
2022/04/18 14:22:55;;;;;;;2.37;1.50;;;18.40;36.80;;;;;;10443544;28;20223;-71
2022/04/18 14:27:56;;;;;;;1.37;1.27;;;18.30;37.50;;;;;;10447643;28;20226;-71
2022/04/18 14:32:56;;;;;;;2.17;1.47;;;18.20;37.10;;;;;;10447722;28;20610;-70
2022/04/18 14:37:57;;;;;;;1.50;1.40;;;18.20;39.30;;;;;;10441853;28;20222;-71
2022/04/18 14:42:57;;;;;;;2.67;1.20;;;18.10;36.70;;;;;;10434514;28;20230;-71
2022/04/18 14:47:58;;;;;;;1.83;1.47;;;18.10;38.00;;;;;;10440208;28;20244;-71
2022/04/18 14:53:09;;;;;;;2.43;1.53;;;18.10;38.00;;;;;;10434947;28;20255;-70
2022/04/18 14:58:10;;;;;;;2.07;1.03;;;18.20;38.20;;;;;;10441959;28;20310;-70
2022/04/18 15:03:14;;;;;;;1.90;1.30;;;18.10;37.70;;;;;;10437152;28;20234;-71
2022/04/18 15:08:15;;;;;;;1.73;1.50;;;18.10;36.80;;;;;;10438385;28;20234;-71
2022/04/18 15:13:15;;;;;;;1.63;1.47;;;18.00;37.80;;;;;;10446207;28;20377;-72
2022/04/18 15:18:16;;;;;;;2.00;1.23;;;18.00;39.00;;;;;;10442300;28;20275;-71
2022/04/18 15:23:19;;;;;;;1.53;1.40;;;18.00;38.30;;;;;;10436755;28;20232;-71
2022/04/18 15:28:20;;;;;;;1.40;1.17;;;18.10;38.80;;;;;;10428591;28;20287;-71
2022/04/18 15:33:21;;;;;;;3.07;1.40;;;18.20;37.90;;;;;;10433898;28;20369;-71
2022/04/18 15:38:21;;;;;;;3.27;1.30;;;18.10;37.50;;;;;;10430377;28;20298;-71
2022/04/18 15:43:22;;;;;;;1.80;1.60;;;18.10;38.10;;;;;;10427415;28;20318;-70
2022/04/18 15:48:23;;;;;;;3.43;1.20;;;18.10;37.70;;;;;;10446545;28;20222;-72
2022/04/18 15:53:23;;;;;;;3.50;1.33;;;18.00;37.90;;;;;;10429222;28;20698;-71
2022/04/18 15:58:24;;;;;;;3.43;1.00;;;18.00;38.40;;;;;;10437078;28;20694;-71
2022/04/18 16:03:25;;;;;;;1.67;1.30;;;17.90;38.40;;;;;;10431362;28;20231;-71
2022/04/18 16:08:25;;;;;;;1.53;1.20;;;17.80;38.50;;;;;;10419690;28;20235;-70
2022/04/18 16:13:26;;;;;;;1.63;1.20;;;17.80;37.90;;;;;;10449290;28;20223;-71
2022/04/18 16:18:27;;;;;;;2.33;1.27;;;17.70;38.40;;;;;;10443880;28;20709;-71
2022/04/18 16:23:27;;;;;;;1.50;1.10;;;17.70;38.70;;;;;;10435365;28;20215;-70
2022/04/18 16:28:28;;;;;;;1.70;1.20;;;17.60;38.60;;;;;;10435282;28;20317;-71
2022/04/18 16:33:28;;;;;;;2.90;1.80;;;17.50;39.10;;;;;;10428014;28;20215;-71
2022/04/18 16:38:29;;;;;;;2.77;1.17;;;17.40;39.70;;;;;;10440352;28;20310;-71
2022/04/18 16:48:49;;;;;;;2.50;1.20;;;17.30;40.60;;;;;;10437827;28;20218;-71
2022/04/18 16:53:53;;;;;;;2.03;1.60;;;17.20;40.10;;;;;;10416713;28;20710;-71
2022/04/18 16:58:53;;;;;;;2.73;1.47;;;17.10;40.90;;;;;;10416734;28;20242;-70
2022/04/18 17:03:54;;;;;;;1.53;1.13;;;16.90;41.30;;;;;;10412391;28;20270;-70
2022/04/18 17:08:54;;;;;;;2.10;1.20;;;16.80;41.60;;;;;;10446075;28;20231;-70
2022/04/18 17:13:56;;;;;;;2.10;1.70;;;16.80;41.30;;;;;;10429927;28;20577;-72
2022/04/18 17:18:56;;;;;;;2.40;1.30;;;16.70;41.30;;;;;;10440792;28;20210;-70
2022/04/18 17:23:57;;;;;;;2.00;1.37;;;16.60;41.20;;;;;;10429224;28;20225;-71
2022/04/18 17:28:57;;;;;;;1.47;1.37;;;16.50;41.10;;;;;;10432644;28;20452;-71
2022/04/18 17:33:58;;;;;;;1.30;1.20;;;16.30;41.90;;;;;;10432033;28;20223;-70
2022/04/18 17:38:59;;;;;;;1.00;0.90;;;16.10;42.70;;;;;;10434313;28;20867;-70
2022/04/18 17:44:00;;;;;;;2.43;1.40;;;15.90;43.10;;;;;;10430353;28;20898;-71
2022/04/18 17:49:00;;;;;;;2.60;1.20;;;16.00;43.80;;;;;;10429693;28;20629;-71
2022/04/18 17:59:22;;;;;;;2.60;1.30;;;16.00;42.90;;;;;;10441124;28;20215;-70
2022/04/18 18:04:23;;;;;;;3.07;1.40;;;15.80;43.50;;;;;;10433415;28;20228;-70
2022/04/18 18:09:23;;;;;;;1.63;1.30;;;15.70;43.70;;;;;;10439923;28;20635;-71
2022/04/18 18:14:25;;;;;;;4.00;1.53;;;15.50;43.80;;;;;;10442159;28;20211;-71
2022/04/18 18:19:25;;;;;;;1.40;1.30;;;15.40;44.30;;;;;;10449547;28;20212;-69
2022/04/18 18:24:26;;;;;;;3.37;1.40;;;15.10;45.40;;;;;;10434434;28;20744;-70
2022/04/18 18:29:27;;;;;;;2.23;1.63;;;14.80;46.60;;;;;;10440858;28;20830;-72
2022/04/18 18:34:30;;;;;;;3.10;2.20;;;14.80;47.40;;;;;;10440099;28;20222;-71
2022/04/18 18:39:32;;;;;;;2.13;1.53;;;14.60;48.10;;;;;;10440308;28;20218;-74
2022/04/18 18:44:32;;;;;;;3.47;1.50;;;14.40;49.10;;;;;;10439132;28;20296;-71
2022/04/18 18:49:33;;;;;;;3.57;1.80;;;14.20;49.60;;;;;;10441551;28;20845;-72
2022/04/18 18:54:33;;;;;;;3.33;2.20;;;14.00;51.40;;;;;;10438670;28;20300;-72
2022/04/18 18:59:34;;;;;;;3.07;2.00;;;13.80;52.30;;;;;;10446239;28;20227;-70
2022/04/18 19:04:35;;;;;;;3.97;2.40;;;13.70;52.10;;;;;;10431229;28;20229;-70
2022/04/18 19:09:38;;;;;;;3.87;2.87;;;13.50;55.00;;;;;;10442693;28;20303;-70
2022/04/18 19:14:39;;;;;;;4.33;2.50;;;13.40;55.10;;;;;;10432951;28;20227;-70
2022/04/18 19:30:18;;;;;;;6.83;3.80;;;13.20;58.00;;;;;;10450562;28;20310;-71
2022/04/18 19:35:18;;;;;;;5.87;4.57;;;13.00;57.50;;;;;;10438983;28;20268;-73
2022/04/18 19:40:19;;;;;;;8.13;6.53;;;12.90;59.70;;;;;;10439673;28;20190;-72
2022/04/18 19:45:21;;;;;;;6.87;4.80;;;12.70;61.50;;;;;;10433087;28;20181;-73
2022/04/18 19:50:21;;;;;;;6.93;4.47;;;12.70;62.50;;;;;;10440049;28;20736;-71
2022/04/18 19:55:22;;;;;;;7.63;5.33;;;12.50;62.80;;;;;;10430196;28;20177;-72
2022/04/18 20:00:24;;;;;;;6.57;4.73;;;12.40;63.60;;;;;;10450851;28;20267;-71
2022/04/18 20:05:26;;;;;;;14.17;6.20;;;12.30;64.60;;;;;;10443533;28;20270;-71
2022/04/18 20:10:29;;;;;;;11.33;6.17;;;12.20;65.70;;;;;;10445845;28;20670;-73
2022/04/18 20:15:33;;;;;;;10.63;7.93;;;12.10;66.20;;;;;;10428839;28;20212;-72
2022/04/18 20:20:33;;;;;;;7.87;5.97;;;12.10;67.00;;;;;;10445616;28;20268;-71
2022/04/18 20:25:34;;;;;;;5.70;3.00;;;12.00;67.60;;;;;;10427668;28;20303;-70
2022/04/18 20:30:35;;;;;;;4.00;2.53;;;12.00;60.50;;;;;;10436557;28;20238;-71
2022/04/18 20:35:37;;;;;;;3.60;2.40;;;12.10;59.60;;;;;;10428932;28;20223;-70
2022/04/18 20:40:38;;;;;;;2.93;2.20;;;12.30;59.00;;;;;;10420303;28;20351;-70
2022/04/18 20:45:39;;;;;;;6.43;5.23;;;12.30;58.90;;;;;;10436296;28;20244;-69
2022/04/18 20:50:39;;;;;;;8.50;5.97;;;12.30;61.90;;;;;;10441997;28;20698;-70
2022/04/18 21:01:02;;;;;;;10.30;6.23;;;11.90;68.30;;;;;;10435693;28;20311;-74
2022/04/18 21:06:04;;;;;;;11.80;6.50;;;11.70;69.20;;;;;;10433570;28;20220;-70
2022/04/18 21:11:04;;;;;;;8.10;5.37;;;11.60;70.50;;;;;;10415615;28;20252;-71
2022/04/18 21:16:05;;;;;;;8.13;4.93;;;11.50;71.10;;;;;;10445519;28;20306;-72
2022/04/18 21:21:07;;;;;;;10.80;5.63;;;11.40;71.00;;;;;;10435621;28;20315;-72
2022/04/18 21:26:07;;;;;;;8.13;5.50;;;11.30;73.20;;;;;;10444077;28;20730;-74
2022/04/18 21:31:12;;;;;;;10.87;5.53;;;11.30;73.70;;;;;;10432919;28;20248;-71
2022/04/18 21:36:41;;;;;;;8.30;5.60;;;11.20;74.50;;;;;;10407512;28;20216;-73
2022/04/18 21:41:37;;;;;;;7.70;4.83;;;11.20;74.70;;;;;;10435872;28;20236;-72
2022/04/18 21:46:38;;;;;;;8.57;5.80;;;11.10;74.90;;;;;;10439084;28;20222;-71
2022/04/18 21:51:43;;;;;;;5.47;4.27;;;10.90;74.90;;;;;;10433680;28;20952;-72
2022/04/18 21:56:45;;;;;;;6.00;4.30;;;10.90;75.70;;;;;;10424970;28;20229;-72
2022/04/18 22:01:46;;;;;;;5.63;4.23;;;10.80;76.10;;;;;;10430320;28;20228;-73
2022/04/18 22:06:50;;;;;;;7.07;4.40;;;10.70;76.90;;;;;;10430295;28;20300;-72
2022/04/18 22:11:51;;;;;;;8.90;6.33;;;10.70;77.90;;;;;;10450689;28;20714;-74
2022/04/18 22:16:52;;;;;;;7.93;5.27;;;10.60;78.60;;;;;;10437166;28;20290;-71
2022/04/18 22:27:14;;;;;;;5.97;4.30;;;10.40;77.50;;;;;;10450002;28;20690;-71
2022/04/18 22:32:21;;;;;;;6.60;4.87;;;10.20;77.20;;;;;;10432587;28;20227;-74
2022/04/18 22:37:25;;;;;;;7.17;4.30;;;10.10;79.50;;;;;;10441810;28;20219;-72
2022/04/18 22:42:29;;;;;;;6.50;3.97;;;10.10;80.10;;;;;;10432901;28;20224;-71
2022/04/18 22:47:30;;;;;;;7.07;4.17;;;10.00;80.20;;;;;;10449404;28;20215;-72
2022/04/18 22:52:32;;;;;;;5.30;3.60;;;10.00;80.90;;;;;;10424541;28;20232;-72
2022/04/18 22:57:33;;;;;;;4.73;3.53;;;9.90;82.40;;;;;;10439120;28;20289;-71
2022/04/18 23:02:35;;;;;;;5.07;3.93;;;9.90;82.50;;;;;;10447366;28;20278;-72
2022/04/18 23:07:36;;;;;;;7.20;4.60;;;9.80;84.30;;;;;;10439494;28;20285;-71
2022/04/18 23:12:37;;;;;;;7.70;4.57;;;9.70;85.60;;;;;;10412675;28;20601;-71
2022/04/18 23:17:40;;;;;;;4.67;2.70;;;9.70;86.80;;;;;;10433917;28;20215;-71
2022/04/18 23:22:42;;;;;;;4.67;2.77;;;9.70;83.30;;;;;;10436568;28;20306;-71
2022/04/18 23:27:43;;;;;;;2.27;2.03;;;9.70;81.90;;;;;;10438971;28;20678;-69
2022/04/18 23:32:43;;;;;;;3.33;2.03;;;9.70;76.30;;;;;;10438387;28;20231;-70
2022/04/18 23:37:44;;;;;;;2.60;1.90;;;9.90;73.70;;;;;;10430613;28;20228;-70
2022/04/18 23:42:45;;;;;;;2.57;1.60;;;9.90;74.80;;;;;;10439097;28;20315;-70
2022/04/18 23:47:46;;;;;;;2.23;1.73;;;9.90;71.50;;;;;;10424163;28;20232;-70
2022/04/18 23:52:47;;;;;;;2.50;1.63;;;10.00;69.60;;;;;;10437815;28;20327;-70
2022/04/18 23:57:49;;;;;;;2.07;1.63;;;10.10;68.50;;;;;;10420606;28;20314;-69
